createdAt,value
2018-06-24T00:00:08.267Z,14.60
2018-06-24T00:02:43.534Z,14.50
2018-06-24T00:05:18.922Z,14.60
2018-06-24T00:07:54.050Z,14.50
2018-06-24T00:10:29.278Z,14.50
2018-06-24T00:13:04.484Z,14.50
2018-06-24T00:15:39.535Z,14.50
2018-06-24T00:18:15.008Z,14.50
2018-06-24T00:20:50.145Z,14.50
2018-06-24T00:23:25.216Z,14.40
2018-06-24T00:28:35.342Z,14.30
2018-06-24T00:31:10.628Z,14.30
2018-06-24T00:33:45.670Z,14.30
2018-06-24T00:36:20.823Z,14.20
2018-06-24T00:38:56.114Z,14.20
2018-06-24T00:41:31.284Z,14.10
2018-06-24T00:44:06.385Z,14.10
2018-06-24T00:46:41.668Z,14.10
2018-06-24T00:49:16.822Z,14.00
2018-06-24T00:51:51.969Z,14.00
2018-06-24T00:54:27.062Z,13.90
2018-06-24T00:57:02.223Z,14.00
2018-06-24T00:59:48.775Z,13.90
2018-06-24T01:02:23.877Z,13.80
2018-06-24T01:04:58.921Z,13.80
2018-06-24T01:07:34.091Z,13.80
2018-06-24T01:10:09.419Z,13.80
2018-06-24T01:12:44.746Z,13.80
2018-06-24T01:15:19.827Z,13.70
2018-06-24T01:17:54.915Z,13.70
2018-06-24T01:20:30.063Z,13.70
2018-06-24T01:23:05.163Z,13.70
2018-06-24T01:25:40.354Z,13.70
2018-06-24T01:28:15.457Z,13.70
2018-06-24T01:30:50.878Z,13.80
2018-06-24T01:33:25.891Z,13.80
2018-06-24T01:36:01.035Z,13.80
2018-06-24T01:38:36.254Z,13.70
2018-06-24T01:41:11.433Z,13.70
2018-06-24T01:43:46.590Z,13.70
2018-06-24T01:46:22.598Z,13.70
2018-06-24T01:48:57.634Z,13.60
2018-06-24T01:51:32.886Z,13.60
2018-06-24T01:54:07.920Z,13.60
2018-06-24T01:56:43.211Z,13.60
2018-06-24T01:59:18.452Z,13.60
2018-06-24T02:01:53.830Z,13.60
2018-06-24T02:04:29.150Z,13.50
2018-06-24T02:07:04.178Z,13.60
2018-06-24T02:09:39.414Z,13.60
2018-06-24T02:12:14.672Z,13.60
2018-06-24T02:14:49.728Z,13.60
2018-06-24T02:17:24.739Z,13.60
2018-06-24T02:19:59.842Z,13.50
2018-06-24T02:22:35.076Z,13.60
2018-06-24T02:25:10.126Z,13.50
2018-06-24T02:27:45.226Z,13.50
2018-06-24T02:30:20.242Z,13.50
2018-06-24T02:32:55.435Z,13.50
2018-06-24T02:35:30.724Z,13.50
2018-06-24T02:38:05.955Z,13.50
2018-06-24T02:40:41.390Z,13.60
2018-06-24T02:43:16.552Z,13.60
2018-06-24T02:45:51.783Z,13.50
2018-06-24T02:48:26.937Z,13.50
2018-06-24T02:51:02.161Z,13.50
2018-06-24T02:53:37.558Z,13.50
2018-06-24T02:56:12.830Z,13.50
2018-06-24T02:58:48.119Z,13.40
2018-06-24T03:01:23.257Z,13.40
2018-06-24T03:03:58.419Z,13.40
2018-06-24T03:06:33.631Z,13.40
2018-06-24T03:09:10.055Z,13.40
2018-06-24T03:11:45.320Z,13.40
2018-06-24T03:14:20.545Z,13.40
2018-06-24T03:16:55.816Z,13.40
2018-06-24T03:19:30.766Z,13.40
2018-06-24T03:22:05.859Z,13.40
2018-06-24T03:24:41.033Z,13.40
2018-06-24T03:27:16.219Z,13.40
2018-06-24T03:29:51.347Z,13.40
2018-06-24T03:32:26.506Z,13.50
2018-06-24T03:35:01.627Z,13.40
2018-06-24T03:37:36.931Z,13.40
2018-06-24T03:40:12.099Z,13.40
2018-06-24T03:42:47.383Z,13.40
2018-06-24T03:45:22.660Z,13.40
2018-06-24T03:47:57.762Z,13.40
2018-06-24T03:50:32.905Z,13.40
2018-06-24T03:53:08.166Z,13.40
2018-06-24T03:55:43.246Z,13.30
2018-06-24T03:58:18.370Z,13.30
2018-06-24T04:00:53.604Z,13.30
2018-06-24T04:03:28.811Z,13.40
2018-06-24T04:06:04.035Z,13.40
2018-06-24T04:08:39.299Z,13.30
2018-06-24T04:11:14.483Z,13.30
2018-06-24T04:13:49.824Z,13.20
2018-06-24T04:16:25.015Z,13.20
2018-06-24T04:19:00.224Z,13.30
2018-06-24T04:21:35.242Z,13.30
2018-06-24T04:24:10.293Z,13.40
2018-06-24T04:26:45.518Z,13.40
2018-06-24T04:29:20.747Z,13.40
2018-06-24T04:31:55.915Z,13.30
2018-06-24T04:34:31.066Z,13.40
2018-06-24T04:37:06.794Z,13.40
2018-06-24T04:39:41.938Z,13.40
2018-06-24T04:42:17.133Z,13.50
2018-06-24T04:44:52.170Z,13.50
2018-06-24T04:47:27.415Z,13.50
2018-06-24T04:50:02.616Z,13.60
2018-06-24T04:52:38.001Z,13.70
2018-06-24T04:55:13.247Z,13.80
2018-06-24T04:57:48.331Z,13.80
2018-06-24T05:00:23.308Z,13.70
2018-06-24T05:02:58.844Z,13.70
2018-06-24T05:05:34.007Z,13.70
2018-06-24T05:08:09.327Z,13.80
2018-06-24T05:10:45.094Z,13.90
2018-06-24T05:13:20.287Z,14.10
2018-06-24T05:18:30.274Z,13.90
2018-06-24T05:21:05.483Z,13.80
2018-06-24T05:23:40.602Z,13.80
2018-06-24T05:26:15.704Z,13.90
2018-06-24T05:28:50.800Z,14.10
2018-06-24T05:34:00.857Z,14.40
2018-06-24T05:36:36.035Z,14.50
2018-06-24T05:39:12.576Z,14.40
2018-06-24T05:41:47.723Z,14.20
2018-06-24T05:44:22.918Z,14.30
2018-06-24T05:46:58.658Z,14.30
2018-06-24T05:49:33.710Z,14.30
2018-06-24T05:52:08.902Z,14.40
2018-06-24T05:54:44.195Z,14.40
2018-06-24T05:57:19.248Z,14.50
2018-06-24T05:59:54.458Z,14.40
2018-06-24T06:02:29.586Z,14.40
2018-06-24T06:05:04.955Z,14.40
2018-06-24T06:07:40.171Z,14.40
2018-06-24T06:10:15.443Z,14.30
2018-06-24T06:12:50.563Z,14.10
2018-06-24T06:15:25.795Z,14.10
2018-06-24T06:18:00.989Z,14.00
2018-06-24T06:20:36.144Z,14.00
2018-06-24T06:23:11.380Z,14.00
2018-06-24T06:25:46.638Z,14.10
2018-06-24T06:28:21.988Z,14.20
2018-06-24T06:30:57.227Z,14.20
2018-06-24T06:33:32.421Z,14.50
2018-06-24T06:38:42.254Z,14.70
2018-06-24T06:41:17.330Z,14.60
2018-06-24T06:43:52.585Z,14.70
2018-06-24T06:46:27.795Z,14.80
2018-06-24T06:49:03.080Z,15.00
2018-06-24T06:51:38.307Z,15.10
2018-06-24T06:54:13.578Z,15.20
2018-06-24T06:56:48.855Z,15.20
2018-06-24T06:59:24.119Z,15.20
2018-06-24T07:01:59.324Z,15.20
2018-06-24T07:04:34.515Z,15.10
2018-06-24T07:07:09.756Z,15.20
2018-06-24T07:09:44.996Z,15.30
2018-06-24T07:12:20.212Z,15.30
2018-06-24T07:14:55.347Z,15.30
2018-06-24T07:17:30.670Z,15.30
2018-06-24T07:20:06.128Z,15.30
2018-06-24T07:22:41.395Z,15.30
2018-06-24T07:25:16.579Z,15.40
2018-06-24T07:27:51.769Z,15.40
2018-06-24T07:30:27.051Z,15.60
2018-06-24T07:33:02.316Z,15.90
2018-06-24T07:35:37.470Z,16.30
2018-06-24T07:38:13.015Z,16.40
2018-06-24T07:40:48.257Z,16.60
2018-06-24T07:43:23.512Z,16.70
2018-06-24T07:48:33.355Z,16.50
2018-06-24T07:51:08.799Z,16.40
2018-06-24T07:53:44.118Z,16.40
2018-06-24T07:56:19.464Z,16.40
2018-06-24T08:01:29.492Z,16.40
2018-06-24T08:04:05.030Z,16.50
2018-06-24T08:06:40.167Z,16.70
2018-06-24T08:09:18.172Z,16.90
2018-06-24T08:11:53.194Z,17.10
2018-06-24T08:14:28.303Z,17.10
2018-06-24T08:17:03.419Z,17.20
2018-06-24T08:19:38.649Z,17.30
2018-06-24T08:22:13.942Z,17.30
2018-06-24T08:24:50.011Z,17.20
2018-06-24T08:27:25.117Z,17.10
2018-06-24T08:30:00.117Z,17.20
2018-06-24T08:32:35.363Z,17.30
2018-06-24T08:35:10.720Z,17.50
2018-06-24T08:37:46.006Z,17.70
2018-06-24T08:40:21.222Z,17.70
2018-06-24T08:42:56.395Z,17.90
2018-06-24T08:45:31.780Z,18.10
2018-06-24T08:48:07.025Z,18.00
2018-06-24T08:53:16.997Z,17.80
2018-06-24T08:55:52.322Z,17.90
2018-06-24T08:58:27.487Z,17.90
2018-06-24T09:01:02.701Z,17.80
2018-06-24T09:03:38.009Z,17.90
2018-06-24T09:06:13.535Z,17.80
2018-06-24T09:08:48.568Z,17.80
2018-06-24T09:11:23.812Z,17.60
2018-06-24T09:13:58.991Z,17.40
2018-06-24T09:16:34.245Z,17.50
2018-06-24T09:19:09.476Z,17.80
2018-06-24T09:21:44.556Z,18.10
2018-06-24T09:26:54.860Z,18.70
2018-06-24T09:29:29.874Z,18.80
2018-06-24T09:32:05.425Z,18.90
2018-06-24T09:34:40.495Z,18.70
2018-06-24T09:37:15.821Z,18.30
2018-06-24T09:39:51.238Z,18.40
2018-06-24T09:42:26.352Z,18.40
2018-06-24T09:45:01.600Z,18.30
2018-06-24T09:50:11.617Z,18.00
2018-06-24T09:52:46.912Z,17.90
2018-06-24T09:55:22.121Z,18.00
2018-06-24T09:57:57.429Z,18.10
2018-06-24T10:00:32.773Z,18.30
2018-06-24T10:03:08.003Z,18.60
2018-06-24T10:05:43.146Z,18.80
2018-06-24T10:08:18.259Z,18.80
2018-06-24T10:10:53.505Z,18.90
2018-06-24T10:13:28.740Z,19.20
2018-06-24T10:16:03.972Z,19.30
2018-06-24T10:18:39.159Z,19.20
2018-06-24T10:21:14.171Z,19.00
2018-06-24T10:23:49.355Z,19.00
2018-06-24T10:26:24.520Z,19.00
2018-06-24T10:28:59.720Z,18.70
2018-06-24T10:31:34.838Z,18.50
2018-06-24T10:34:09.976Z,18.70
2018-06-24T10:36:45.093Z,18.90
2018-06-24T10:39:20.422Z,19.30
2018-06-24T10:41:55.750Z,19.50
2018-06-24T10:44:31.051Z,19.80
2018-06-24T10:47:06.254Z,19.70
2018-06-24T10:49:41.397Z,19.50
2018-06-24T10:52:16.508Z,19.30
2018-06-24T10:54:51.657Z,19.30
2018-06-24T10:57:26.983Z,19.20
2018-06-24T11:00:02.314Z,19.10
2018-06-24T11:02:37.623Z,19.00
2018-06-24T11:05:12.908Z,18.90
2018-06-24T11:07:48.258Z,19.00
2018-06-24T11:10:23.262Z,19.10
2018-06-24T11:12:58.473Z,19.20
2018-06-24T11:15:33.716Z,19.20
2018-06-24T11:18:08.935Z,19.50
2018-06-24T11:20:44.123Z,19.70
2018-06-24T11:23:19.199Z,19.60
2018-06-24T11:25:54.284Z,19.50
2018-06-24T11:28:29.536Z,19.60
2018-06-24T11:31:04.918Z,19.80
2018-06-24T11:33:40.094Z,19.90
2018-06-24T11:36:15.206Z,19.90
2018-06-24T11:38:50.536Z,20.00
2018-06-24T11:41:25.813Z,20.00
2018-06-24T11:44:00.982Z,20.00
2018-06-24T11:46:36.431Z,19.90
2018-06-24T11:49:11.635Z,19.70
2018-06-24T11:51:46.900Z,19.90
2018-06-24T11:54:22.204Z,20.10
2018-06-24T11:56:57.363Z,20.20
2018-06-24T11:59:32.639Z,20.20
2018-06-24T12:02:07.764Z,20.10
2018-06-24T12:04:42.901Z,20.10
2018-06-24T12:07:18.128Z,20.10
2018-06-24T12:09:53.709Z,20.00
2018-06-24T12:12:29.342Z,20.20
2018-06-24T12:15:04.720Z,20.30
2018-06-24T12:17:40.122Z,20.50
2018-06-24T12:20:15.376Z,20.80
2018-06-24T12:22:50.719Z,21.00
2018-06-24T12:25:26.054Z,21.20
2018-06-24T12:28:01.180Z,21.50
2018-06-24T12:30:36.466Z,21.70
2018-06-24T12:33:11.574Z,21.90
2018-06-24T12:35:46.804Z,21.50
2018-06-24T12:38:22.184Z,21.40
2018-06-24T12:40:57.285Z,21.40
2018-06-24T12:43:32.619Z,21.50
2018-06-24T12:46:07.849Z,21.60
2018-06-24T12:48:43.090Z,21.80
2018-06-24T12:51:18.425Z,21.90
2018-06-24T12:53:53.687Z,21.90
2018-06-24T12:56:29.070Z,21.90
2018-06-24T12:59:04.474Z,21.70
2018-06-24T13:01:39.491Z,21.80
2018-06-24T13:04:14.753Z,22.00
2018-06-24T13:06:50.082Z,21.90
2018-06-24T13:09:25.503Z,21.80
2018-06-24T13:12:00.833Z,21.90
2018-06-24T13:14:36.046Z,22.10
2018-06-24T13:17:11.241Z,22.10
2018-06-24T13:19:46.366Z,22.10
2018-06-24T13:22:21.578Z,21.80
2018-06-24T13:24:56.679Z,21.40
2018-06-24T13:27:31.974Z,21.50
2018-06-24T13:30:07.696Z,21.70
2018-06-24T13:32:42.775Z,22.00
2018-06-24T13:37:52.595Z,22.20
2018-06-24T13:40:27.828Z,22.40
2018-06-24T13:43:03.052Z,22.50
2018-06-24T13:45:38.230Z,22.60
2018-06-24T13:48:13.289Z,22.20
2018-06-24T13:50:48.501Z,22.00
2018-06-24T13:53:23.635Z,21.90
2018-06-24T13:55:58.915Z,21.90
2018-06-24T13:58:34.043Z,21.70
2018-06-24T14:01:09.151Z,21.60
2018-06-24T14:03:44.412Z,21.60
2018-06-24T14:08:54.865Z,21.70
2018-06-24T14:11:30.229Z,21.70
2018-06-24T14:14:05.669Z,21.90
2018-06-24T14:16:41.124Z,21.80
2018-06-24T14:19:16.520Z,21.80
2018-06-24T14:21:51.664Z,22.20
2018-06-24T14:24:27.012Z,22.40
2018-06-24T14:27:02.062Z,22.60
2018-06-24T14:29:37.273Z,22.30
2018-06-24T14:32:12.517Z,22.40
2018-06-24T14:34:47.646Z,22.70
2018-06-24T14:37:22.895Z,23.20
2018-06-24T14:39:58.254Z,23.70
2018-06-24T14:42:33.550Z,23.80
2018-06-24T14:45:08.857Z,23.80
2018-06-24T14:47:44.062Z,23.40
2018-06-24T14:50:19.221Z,23.10
2018-06-24T14:52:54.467Z,22.90
2018-06-24T14:55:29.849Z,22.60
2018-06-24T14:58:05.053Z,21.90
2018-06-24T15:00:40.255Z,21.30
2018-06-24T15:03:15.591Z,20.60
2018-06-24T15:05:50.725Z,20.30
2018-06-24T15:08:25.935Z,20.40
2018-06-24T15:11:00.915Z,21.60
2018-06-24T15:13:36.040Z,22.70
2018-06-24T15:16:11.315Z,23.50
2018-06-24T15:18:46.585Z,23.80
2018-06-24T15:21:21.861Z,23.30
2018-06-24T15:23:57.260Z,24.00
2018-06-24T15:26:32.625Z,26.60
2018-06-24T15:29:07.814Z,29.50
2018-06-24T15:31:43.089Z,31.60
2018-06-24T15:34:18.379Z,32.40
2018-06-24T15:36:53.500Z,31.90
2018-06-24T15:39:28.604Z,30.80
2018-06-24T15:42:03.872Z,29.50
2018-06-24T15:44:38.906Z,28.10
2018-06-24T15:47:14.762Z,27.30
2018-06-24T15:49:50.500Z,26.70
2018-06-24T15:52:25.578Z,26.20
2018-06-24T15:55:00.830Z,25.80
2018-06-24T15:57:36.101Z,26.20
2018-06-24T16:00:11.401Z,26.40
2018-06-24T16:02:46.662Z,25.90
2018-06-24T16:05:21.802Z,24.90
2018-06-24T16:07:56.939Z,24.20
2018-06-24T16:10:32.302Z,23.50
2018-06-24T16:13:07.613Z,22.70
2018-06-24T16:15:42.849Z,22.10
2018-06-24T16:18:18.683Z,21.60
2018-06-24T16:20:54.141Z,21.30
2018-06-24T16:23:29.365Z,21.20
2018-06-24T16:26:04.484Z,21.10
2018-06-24T16:31:14.463Z,21.00
2018-06-24T16:33:49.626Z,20.60
2018-06-24T16:36:24.930Z,20.50
2018-06-24T16:39:00.182Z,20.50
2018-06-24T16:41:35.411Z,20.50
2018-06-24T16:44:11.059Z,20.70
2018-06-24T16:46:46.311Z,21.00
2018-06-24T16:49:21.520Z,21.00
2018-06-24T16:51:56.702Z,21.10
2018-06-24T16:54:31.909Z,21.20
2018-06-24T16:57:07.193Z,21.10
2018-06-24T16:59:42.583Z,21.10
2018-06-24T17:02:17.857Z,21.10
2018-06-24T17:04:53.017Z,21.10
2018-06-24T17:07:28.259Z,21.30
2018-06-24T17:10:03.843Z,21.40
2018-06-24T17:12:39.034Z,21.50
2018-06-24T17:15:14.349Z,21.10
2018-06-24T17:17:49.902Z,20.70
2018-06-24T17:20:25.537Z,20.40
2018-06-24T17:23:00.816Z,20.10
2018-06-24T17:25:36.228Z,19.80
2018-06-24T17:28:11.497Z,19.60
2018-06-24T17:30:46.618Z,19.40
2018-06-24T17:33:21.831Z,19.40
2018-06-24T17:35:57.305Z,19.40
2018-06-24T17:38:32.642Z,19.40
2018-06-24T17:41:08.012Z,19.40
2018-06-24T17:43:43.289Z,19.40
2018-06-24T17:46:18.609Z,19.40
2018-06-24T17:48:53.865Z,19.40
2018-06-24T17:51:29.049Z,19.30
2018-06-24T17:54:04.211Z,19.20
2018-06-24T17:56:39.509Z,19.10
2018-06-24T17:59:14.655Z,18.90
2018-06-24T18:01:49.896Z,18.80
2018-06-24T18:06:59.935Z,18.60
2018-06-24T18:09:35.445Z,18.60
2018-06-24T18:12:10.835Z,18.50
2018-06-24T18:14:46.045Z,18.50
2018-06-24T18:17:21.303Z,18.40
2018-06-24T18:19:56.608Z,18.30
2018-06-24T18:22:32.020Z,18.20
2018-06-24T18:25:07.593Z,18.20
2018-06-24T18:27:42.967Z,18.10
2018-06-24T18:30:18.177Z,18.00
2018-06-24T18:32:53.671Z,17.90
2018-06-24T18:35:28.947Z,17.90
2018-06-24T18:38:04.308Z,17.80
2018-06-24T18:40:39.782Z,17.80
2018-06-24T18:43:14.985Z,17.70
2018-06-24T18:45:50.479Z,17.60
2018-06-24T18:48:25.950Z,17.60
2018-06-24T18:51:01.242Z,17.60
2018-06-24T18:53:36.673Z,17.50
2018-06-24T18:56:12.270Z,17.40
2018-06-24T18:58:47.551Z,17.40
2018-06-24T19:01:23.076Z,17.40
2018-06-24T19:03:58.513Z,17.40
2018-06-24T19:06:33.761Z,17.40
2018-06-24T19:11:46.241Z,17.30
2018-06-24T19:14:21.616Z,17.20
2018-06-24T19:16:57.074Z,17.30
2018-06-24T19:19:32.735Z,17.40
2018-06-24T19:22:08.891Z,17.40
2018-06-24T19:24:44.190Z,17.40
2018-06-24T19:27:19.744Z,17.30
2018-06-24T19:29:55.321Z,17.30
2018-06-24T19:32:30.710Z,17.40
2018-06-24T19:35:06.069Z,17.30
2018-06-24T19:37:41.519Z,17.30
2018-06-24T19:40:17.405Z,17.30
2018-06-24T19:42:52.689Z,17.30
2018-06-24T19:45:28.021Z,17.20
2018-06-24T19:48:03.321Z,17.30
2018-06-24T19:50:38.920Z,17.20
2018-06-24T19:53:14.882Z,17.20
2018-06-24T19:55:52.009Z,17.10
2018-06-24T19:58:27.632Z,17.10
2018-06-24T20:01:03.250Z,17.10
2018-06-24T20:03:38.767Z,17.10
2018-06-24T20:06:14.112Z,17.10
2018-06-24T20:08:50.048Z,17.10
2018-06-24T20:11:25.496Z,17.10
2018-06-24T20:16:36.417Z,16.90
2018-06-24T20:19:11.673Z,16.90
2018-06-24T20:21:47.075Z,16.80
2018-06-24T20:24:22.460Z,16.70
2018-06-24T20:26:57.882Z,16.70
2018-06-24T20:29:33.326Z,16.60
2018-06-24T20:32:08.889Z,16.60
2018-06-24T20:34:44.261Z,16.60
2018-06-24T20:37:19.655Z,16.60
2018-06-24T20:39:56.001Z,16.50
2018-06-24T20:42:31.542Z,16.40
2018-06-24T20:45:07.165Z,16.40
2018-06-24T20:47:42.464Z,16.40
2018-06-24T20:50:17.694Z,16.40
2018-06-24T20:52:52.990Z,16.30
2018-06-24T20:55:28.207Z,16.30
2018-06-24T20:58:03.476Z,16.30
2018-06-24T21:00:38.871Z,16.20
2018-06-24T21:03:14.194Z,16.10
2018-06-24T21:05:49.520Z,16.10
2018-06-24T21:08:24.856Z,16.10
2018-06-24T21:11:00.196Z,16.10
2018-06-24T21:13:35.603Z,16.10
2018-06-24T21:16:10.820Z,16.00
2018-06-24T21:18:45.975Z,16.00
2018-06-24T21:21:21.130Z,16.00
2018-06-24T21:23:56.382Z,16.00
2018-06-24T21:26:31.620Z,16.00
2018-06-24T21:29:06.894Z,15.90
2018-06-24T21:31:42.189Z,15.90
2018-06-24T21:34:17.541Z,15.90
2018-06-24T21:36:53.228Z,15.90
2018-06-24T21:42:09.841Z,15.90
2018-06-24T21:44:45.030Z,15.90
2018-06-24T21:47:20.271Z,15.90
2018-06-24T21:49:55.518Z,15.90
2018-06-24T21:52:30.807Z,15.80
2018-06-24T21:55:06.414Z,15.70
2018-06-24T21:57:41.677Z,15.70
2018-06-24T22:02:51.875Z,15.60
2018-06-24T22:05:26.967Z,15.60
2018-06-24T22:10:37.136Z,15.50
2018-06-24T22:13:12.541Z,15.40
2018-06-24T22:15:47.779Z,15.40
2018-06-24T22:18:22.990Z,15.30
2018-06-24T22:20:58.156Z,15.40
2018-06-24T22:23:33.320Z,15.40
2018-06-24T22:26:08.936Z,15.40
2018-06-24T22:28:44.166Z,15.30
2018-06-24T22:31:19.448Z,15.20
2018-06-24T22:33:54.544Z,15.20
2018-06-24T22:36:29.876Z,15.20
2018-06-24T22:39:08.360Z,15.20
2018-06-24T22:41:43.536Z,15.10
2018-06-24T22:44:18.790Z,15.10
2018-06-24T22:46:54.063Z,15.10
2018-06-24T22:49:29.159Z,15.10
2018-06-24T22:52:04.284Z,15.20
2018-06-24T22:54:39.382Z,15.10
2018-06-24T22:57:14.627Z,15.10
2018-06-24T23:02:46.779Z,15.10
2018-06-24T23:05:21.920Z,15.00
2018-06-24T23:07:57.049Z,15.00
2018-06-24T23:10:32.151Z,15.00
2018-06-24T23:13:07.187Z,15.00
2018-06-24T23:15:42.414Z,15.10
2018-06-24T23:18:17.602Z,15.10
2018-06-24T23:20:52.773Z,15.20
2018-06-24T23:23:27.913Z,15.20
2018-06-24T23:26:03.211Z,15.20
2018-06-24T23:28:38.246Z,15.20
2018-06-24T23:31:13.631Z,15.20
2018-06-24T23:33:48.843Z,15.20
2018-06-24T23:36:23.962Z,15.30
2018-06-24T23:38:59.007Z,15.30
2018-06-24T23:41:34.192Z,15.30
2018-06-24T23:44:09.283Z,15.30
2018-06-24T23:46:44.578Z,15.30
2018-06-24T23:49:19.629Z,15.30
2018-06-24T23:51:54.700Z,15.30
2018-06-24T23:54:30.367Z,15.30
2018-06-24T23:57:05.874Z,15.30
2018-06-24T23:59:41.015Z,15.30
